Time;durP1;ratioP1;P1;durP2;ratioP2;P2;SDS_P1;SDS_P2;PMS_P1;PMS_P2;Temp;Humidity;BMP_temperature;BMP_pressure;BME280_temperature;BME280_humidity;BME280_pressure;Samples;Min_cycle;Max_cycle;Signal;HPM_P1;HPM_P2
2021/01/12 19:18:55;;;;;;;743.77;526.10;;;;;;;24.28;37.25;100207.94;1876875;74;25629;-68
2021/01/12 19:21:21;;;;;;;1999.90;999.90;;;;;;;24.17;38.13;100215.30;1841909;77;25719;-68
2021/01/12 19:23:48;;;;;;;621.30;389.80;;;;;;;24.07;41.71;100209.11;1845450;77;28234;-67
2021/01/12 19:26:15;;;;;;;612.00;374.00;;;;;;;24.13;37.34;100210.16;1843907;77;25711;-66
2021/01/12 19:51:19;;;;;;;;;;;;;;;23.75;37.90;100256.28;5026276;28;102148;-63
2021/01/12 19:53:45;;;;;;;;;;;;;;;23.75;38.09;100264.41;5009619;28;102492;-63
2021/01/12 19:56:10;;;;;;;;;;;;;;;23.77;38.41;100264.97;5009653;28;101949;-65
2021/01/12 19:58:36;;;;;;;;;;;;;;;23.73;38.13;100270.09;5012495;28;102237;-64
2021/01/12 20:01:03;;;;;;;;;;;;;;;23.75;37.58;100264.41;5007628;28;102057;-64
2021/01/12 20:03:28;;;;;;;;;;;;;;;23.72;38.01;100263.06;5015642;28;102940;-65
2021/01/12 20:05:54;;;;;;;;;;;;;;;23.76;38.61;100279.63;5006909;28;102557;-63
2021/01/12 20:08:21;;;;;;;;;;;;;;;23.76;38.09;100282.34;5011903;28;101997;-64
2021/01/12 20:10:48;;;;;;;;;;;;;;;23.77;38.76;100286.66;5008034;28;102923;-64
2021/01/12 20:13:14;;;;;;;;;;;;;;;23.79;37.42;100279.88;5015361;28;102666;-67
2021/01/12 20:15:43;;;;;;;;;;;;;;;23.76;37.48;100295.88;5013590;28;102910;-67
2021/01/12 20:18:18;;;;;;;;;;;;;;;23.65;37.58;100299.63;5011021;28;102051;-68
2021/01/12 20:20:44;;;;;;;;;;;;;;;23.58;37.48;100295.28;5008301;28;102929;-68
2021/01/12 20:23:11;;;;;;;;;;;;;;;23.69;37.90;100306.94;5010535;28;102880;-63
2021/01/12 20:25:41;;;;;;;;;;;;;;;23.70;37.03;100310.47;5009894;28;102926;-64
2021/01/12 20:28:12;;;;;;;;;;;;;;;23.65;44.13;100313.97;5010441;28;102412;-64
2021/01/12 20:30:37;;;;;;;;;;;;;;;23.44;38.43;100331.28;5010885;28;102400;-64
2021/01/12 20:33:06;;;;;;;;;;;;;;;23.50;37.54;100332.94;5007633;27;102765;-64
2021/01/12 20:35:31;;;;;;;;;;;;;;;23.50;37.22;100341.84;5013521;28;102630;-63
2021/01/12 20:37:57;;;;;;;;;;;;;;;23.51;37.42;100342.69;5010519;28;101982;-62
2021/01/12 20:40:22;;;;;;;;;;;;;;;23.51;37.71;100335.38;5015239;28;102240;-64
2021/01/12 20:42:48;;;;;;;;;;;;;;;23.49;37.53;100337.53;5008210;28;102784;-64
2021/01/12 20:45:13;;;;;;;;;;;;;;;23.48;37.39;100333.19;5011063;28;102561;-64
2021/01/12 20:47:41;;;;;;;;;;;;;;;23.48;37.64;100333.19;5011577;28;102058;-64
2021/01/12 20:50:06;;;;;;;;;;;;;;;23.49;37.46;100334.81;5026917;27;102650;-63
2021/01/12 20:52:34;;;;;;;;;;;;;;;23.50;37.32;100336.44;5028768;27;104009;-63
2021/01/12 20:54:59;;;;;;;;;;;;;;;23.52;37.69;100339.69;5031561;27;101967;-63
2021/01/12 20:57:25;;;;;;;;;;;;;;;23.52;37.42;100345.09;5030582;27;102316;-64
2021/01/12 20:59:50;;;;;;;;;;;;;;;23.53;37.45;100346.75;5031681;27;102506;-65
2021/01/12 21:02:16;;;;;;;;;;;;;;;23.53;37.58;100338.63;5019798;27;102183;-63
2021/01/12 21:04:41;;;;;;;;;;;;;;;23.53;37.37;100345.94;5016265;28;104636;-63
2021/01/12 21:07:06;;;;;;;;;;;;;;;23.52;37.83;100342.41;5012716;28;102500;-63
2021/01/12 21:09:31;;;;;;;;;;;;;;;23.54;37.14;100348.34;5015072;28;103113;-64
2021/01/12 21:11:58;;;;;;;;;;;;;;;23.56;37.17;100343.47;5017061;28;102856;-65
2021/01/12 21:14:23;;;;;;;;;;;;;;;23.57;37.04;100337.00;5000947;28;103806;-65
2021/01/12 21:33:58;;;;;;;1943.47;957.50;;;;;;;27.71;30.82;100339.47;5036632;27;102435;-66
2021/01/12 21:36:24;;;;;;;1942.20;703.35;;;;;;;26.71;58.37;100347.72;5026953;27;101938;-66
2021/01/12 21:38:49;;;;;;;1993.22;960.38;;;;;;;26.06;35.68;100340.00;5054142;27;102486;-68
2021/01/12 21:41:25;;;;;;;510.25;330.30;;;;;;;25.70;34.33;100347.66;5066333;27;62531;-70
2021/01/12 21:46:38;;;;;;;5.93;1.50;;;;;;;16.60;27.37;100363.22;5096767;27;62529;-71
2021/01/12 21:49:05;;;;;;;2.13;1.00;;;;;;;14.05;32.13;100372.78;5078550;27;62625;-71
2021/01/12 21:51:30;;;;;;;3.80;1.15;;;;;;;10.61;39.53;100371.81;5079135;27;65061;-72
2021/01/12 21:53:55;;;;;;;5.75;1.13;;;;;;;9.18;43.75;100383.06;5074797;27;62700;-73
2021/01/12 21:56:23;;;;;;;5.03;1.42;;;;;;;7.15;49.78;100381.25;5071742;27;62949;-73
2021/01/12 21:58:55;;;;;;;4.97;0.88;;;;;;;5.79;54.44;100382.75;5078721;27;62805;-72
2021/01/12 22:01:24;;;;;;;3.08;0.82;;;;;;;4.93;57.70;100386.63;5068982;27;64361;-71
2021/01/12 22:03:50;;;;;;;3.33;1.05;;;;;;;4.11;61.14;100392.56;5076466;27;62621;-72
2021/01/12 22:06:26;;;;;;;8.27;1.13;;;;;;;3.59;63.76;100383.19;5058769;27;62467;-72
2021/01/12 22:11:36;;;;;;;4.82;0.80;;;;;;;2.81;67.81;100397.91;4984156;27;62927;-70
2021/01/12 22:14:02;;;;;;;3.58;0.60;;;;;;;2.47;69.75;100406.03;4954206;28;62589;-70
2021/01/12 22:16:28;;;;;;;1.23;0.90;;;;;;;2.24;70.52;100397.47;4955490;28;63032;-70
2021/01/12 22:18:55;;;;;;;2.58;1.42;;;;;;;2.06;71.64;100399.81;4959125;28;62806;-70
2021/01/12 22:21:20;;;;;;;3.88;0.60;;;;;;;1.93;72.58;100407.84;4953370;28;62805;-71
2021/01/12 22:23:46;;;;;;;3.72;1.13;;;;;;;1.77;73.82;100410.09;4953383;28;62611;-70
2021/01/12 22:26:13;;;;;;;3.40;0.73;;;;;;;1.67;73.89;100401.34;4955323;28;63678;-70
2021/01/12 22:28:41;;;;;;;4.38;0.85;;;;;;;1.61;74.83;100413.09;4964267;28;62821;-70
2021/01/12 22:31:07;;;;;;;2.47;0.82;;;;;;;1.54;74.71;100418.00;4954432;28;63144;-71
2021/01/12 22:35:31;;;;;;;4.00;0.85;;;;;;;1.44;75.30;100417.06;5090388;27;62342;-70
2021/01/12 22:37:57;;;;;;;2.42;1.02;;;;;;;1.50;75.41;100429.66;5039912;27;62899;-71
2021/01/12 22:40:26;;;;;;;3.17;0.80;;;;;;;1.46;75.52;100425.63;5015690;28;63842;-72
2021/01/12 22:42:52;;;;;;;2.78;1.10;;;;;;;1.43;75.68;100429.31;5028769;28;62668;-72
2021/01/12 22:45:18;;;;;;;6.80;0.90;;;;;;;1.43;75.78;100431.94;5028852;28;62767;-72
2021/01/12 22:47:44;;;;;;;6.28;1.00;;;;;;;1.42;76.30;100438.13;5003610;28;62704;-73
2021/01/12 22:50:11;;;;;;;3.42;0.80;;;;;;;1.34;76.01;100421.38;5025833;28;63401;-72
2021/01/12 22:52:46;;;;;;;6.60;1.00;;;;;;;1.34;76.69;100437.06;5020948;28;62642;-71
2021/01/12 22:55:13;;;;;;;2.53;0.63;;;;;;;1.33;76.82;100440.63;5022500;28;63081;-72
2021/01/12 22:57:43;;;;;;;2.67;0.85;;;;;;;1.30;77.26;100440.88;5008401;28;62810;-72
2021/01/12 23:00:12;;;;;;;4.40;1.10;;;;;;;1.28;77.41;100455.84;5019358;28;63457;-69
2021/01/12 23:02:40;;;;;;;3.80;0.68;;;;;;;1.19;77.63;100439.09;5018173;28;62715;-72
2021/01/12 23:05:07;;;;;;;2.15;0.73;;;;;;;1.21;78.38;100452.88;5010091;28;62932;-72
2021/01/12 23:07:33;;;;;;;6.38;0.93;;;;;;;1.17;78.01;100436.63;5016364;28;62627;-72
2021/01/12 23:10:00;;;;;;;2.47;0.77;;;;;;;1.20;78.43;100456.44;5024529;28;63334;-73
2021/01/12 23:12:26;;;;;;;3.95;0.68;;;;;;;1.14;78.57;100452.53;5022939;28;62727;-70
2021/01/12 23:15:13;;;;;;;5.05;0.88;;;;;;;1.14;78.74;100462.97;5019503;28;62589;-70
2021/01/12 23:17:45;;;;;;;1.75;0.52;;;;;;;1.08;79.28;100455.59;5007461;28;62442;-70
2021/01/12 23:20:25;;;;;;;2.63;1.42;;;;;;;1.11;79.33;100459.78;5023208;28;62658;-70
2021/01/12 23:22:52;;;;;;;8.25;1.40;;;;;;;1.00;79.57;100444.94;4998248;28;62959;-70
2021/01/12 23:25:24;;;;;;;1.90;0.60;;;;;;;1.00;79.88;100455.41;5029668;28;62701;-70
2021/01/12 23:27:55;;;;;;;5.93;0.95;;;;;;;1.02;79.33;100464.78;4998489;28;63414;-68
2021/01/12 23:30:25;;;;;;;2.65;1.17;;;;;;;0.97;80.17;100472.13;5025944;28;63515;-68
2021/01/12 23:32:54;;;;;;;3.08;0.85;;;;;;;0.95;79.75;100457.53;5023807;28;62893;-69
2021/01/12 23:35:24;;;;;;;7.30;1.17;;;;;;;0.92;80.10;100470.81;5000843;28;63335;-69
2021/01/12 23:37:55;;;;;;;0.98;0.40;;;;;;;0.93;80.30;100469.88;5020035;28;63603;-68
2021/01/12 23:40:27;;;;;;;1.17;0.68;;;;;;;0.92;80.54;100473.44;5023074;28;62607;-68
2021/01/12 23:42:57;;;;;;;2.42;0.65;;;;;;;0.89;79.98;100476.28;5023983;28;62711;-68
2021/01/12 23:45:34;;;;;;;2.72;0.60;;;;;;;0.91;80.31;100476.97;4997135;28;62537;-68
2021/01/12 23:48:10;;;;;;;3.95;0.95;;;;;;;0.89;80.12;100473.66;4992329;28;63137;-69
2021/01/12 23:50:39;;;;;;;2.47;0.50;;;;;;;0.88;79.89;100472.84;4987784;28;63396;-68
2021/01/12 23:53:08;;;;;;;4.22;0.93;;;;;;;0.93;79.63;100467.25;5016866;28;62630;-68
2021/01/12 23:55:34;;;;;;;3.58;0.80;;;;;;;0.91;80.04;100466.53;5001856;28;63374;-68
2021/01/12 23:58:00;;;;;;;2.05;0.70;;;;;;;0.91;79.85;100466.53;5003325;28;62755;-69
